sensor_id;sensor_type;location;lat;lon;timestamp;P1;durP1;ratioP1;P2;durP2;ratioP2
67442;SDS011;54311;51.726;5.154;2022-09-09T00:09:21;8.80;;;2.50;;
67442;SDS011;54311;51.726;5.154;2022-09-09T00:11:51;3.35;;;2.33;;
67442;SDS011;54311;51.726;5.154;2022-09-09T00:16:43;3.55;;;3.25;;
67442;SDS011;54311;51.726;5.154;2022-09-09T00:21:35;4.03;;;2.80;;
67442;SDS011;54311;51.726;5.154;2022-09-09T00:24:04;4.00;;;2.83;;
67442;SDS011;54311;51.726;5.154;2022-09-09T00:26:45;3.10;;;2.90;;
67442;SDS011;54311;51.726;5.154;2022-09-09T00:31:37;4.63;;;3.03;;
67442;SDS011;54311;51.726;5.154;2022-09-09T00:36:30;3.40;;;3.10;;
67442;SDS011;54311;51.726;5.154;2022-09-09T00:38:59;3.30;;;3.10;;
67442;SDS011;54311;51.726;5.154;2022-09-09T00:43:57;5.28;;;3.10;;
67442;SDS011;54311;51.726;5.154;2022-09-09T00:49:02;3.03;;;2.83;;
67442;SDS011;54311;51.726;5.154;2022-09-09T00:51:32;3.47;;;3.13;;
67442;SDS011;54311;51.726;5.154;2022-09-09T00:54:12;3.60;;;3.30;;
67442;SDS011;54311;51.726;5.154;2022-09-09T00:56:46;3.28;;;3.00;;
67442;SDS011;54311;51.726;5.154;2022-09-09T00:59:16;4.15;;;3.28;;
67442;SDS011;54311;51.726;5.154;2022-09-09T01:01:48;4.07;;;3.45;;
67442;SDS011;54311;51.726;5.154;2022-09-09T01:04:16;5.80;;;3.40;;
67442;SDS011;54311;51.726;5.154;2022-09-09T01:06:45;4.57;;;3.30;;
67442;SDS011;54311;51.726;5.154;2022-09-09T01:09:33;7.60;;;3.80;;
67442;SDS011;54311;51.726;5.154;2022-09-09T01:14:35;4.23;;;3.90;;
67442;SDS011;54311;51.726;5.154;2022-09-09T01:17:11;5.07;;;3.97;;
67442;SDS011;54311;51.726;5.154;2022-09-09T01:22:11;6.30;;;4.45;;
67442;SDS011;54311;51.726;5.154;2022-09-09T01:27:24;4.65;;;4.20;;
67442;SDS011;54311;51.726;5.154;2022-09-09T01:29:50;4.80;;;4.10;;
67442;SDS011;54311;51.726;5.154;2022-09-09T01:34:59;5.50;;;4.45;;
67442;SDS011;54311;51.726;5.154;2022-09-09T01:37:24;5.87;;;4.43;;
67442;SDS011;54311;51.726;5.154;2022-09-09T01:39:49;5.53;;;3.95;;
67442;SDS011;54311;51.726;5.154;2022-09-09T01:42:15;4.70;;;3.80;;
67442;SDS011;54311;51.726;5.154;2022-09-09T01:44:41;4.30;;;3.97;;
67442;SDS011;54311;51.726;5.154;2022-09-09T01:47:06;6.38;;;4.53;;
67442;SDS011;54311;51.726;5.154;2022-09-09T01:49:31;4.68;;;4.38;;
67442;SDS011;54311;51.726;5.154;2022-09-09T01:51:57;8.85;;;4.70;;
67442;SDS011;54311;51.726;5.154;2022-09-09T01:54:24;4.50;;;4.07;;
67442;SDS011;54311;51.726;5.154;2022-09-09T02:02:09;4.30;;;4.10;;
67442;SDS011;54311;51.726;5.154;2022-09-09T02:04:39;6.20;;;4.30;;
67442;SDS011;54311;51.726;5.154;2022-09-09T02:07:07;5.00;;;4.50;;
67442;SDS011;54311;51.726;5.154;2022-09-09T02:09:35;8.25;;;5.10;;
67442;SDS011;54311;51.726;5.154;2022-09-09T02:12:22;4.95;;;4.55;;
67442;SDS011;54311;51.726;5.154;2022-09-09T02:14:47;7.53;;;4.30;;
67442;SDS011;54311;51.726;5.154;2022-09-09T02:17:15;5.00;;;4.70;;
67442;SDS011;54311;51.726;5.154;2022-09-09T02:19:44;5.65;;;5.03;;
67442;SDS011;54311;51.726;5.154;2022-09-09T02:22:10;5.13;;;4.57;;
67442;SDS011;54311;51.726;5.154;2022-09-09T02:24:37;5.13;;;4.53;;
67442;SDS011;54311;51.726;5.154;2022-09-09T02:27:03;5.75;;;4.38;;
67442;SDS011;54311;51.726;5.154;2022-09-09T02:29:31;6.03;;;4.90;;
67442;SDS011;54311;51.726;5.154;2022-09-09T02:31:59;5.93;;;4.28;;
67442;SDS011;54311;51.726;5.154;2022-09-09T02:34:28;8.05;;;4.68;;
67442;SDS011;54311;51.726;5.154;2022-09-09T02:36:53;7.88;;;4.25;;
67442;SDS011;54311;51.726;5.154;2022-09-09T02:39:21;8.25;;;4.45;;
67442;SDS011;54311;51.726;5.154;2022-09-09T02:41:46;5.30;;;4.90;;
67442;SDS011;54311;51.726;5.154;2022-09-09T02:44:13;7.30;;;4.70;;
67442;SDS011;54311;51.726;5.154;2022-09-09T02:49:11;5.10;;;4.75;;
67442;SDS011;54311;51.726;5.154;2022-09-09T02:54:37;7.35;;;4.65;;
67442;SDS011;54311;51.726;5.154;2022-09-09T02:57:08;6.00;;;5.40;;
67442;SDS011;54311;51.726;5.154;2022-09-09T02:59:35;6.07;;;4.65;;
67442;SDS011;54311;51.726;5.154;2022-09-09T03:02:00;11.57;;;4.85;;
67442;SDS011;54311;51.726;5.154;2022-09-09T03:04:26;8.23;;;4.63;;
67442;SDS011;54311;51.726;5.154;2022-09-09T03:06:51;8.97;;;4.60;;
67442;SDS011;54311;51.726;5.154;2022-09-09T03:09:16;4.73;;;4.33;;
67442;SDS011;54311;51.726;5.154;2022-09-09T03:11:41;9.40;;;4.80;;
67442;SDS011;54311;51.726;5.154;2022-09-09T03:14:07;7.50;;;4.30;;
67442;SDS011;54311;51.726;5.154;2022-09-09T03:16:33;8.63;;;4.55;;
67442;SDS011;54311;51.726;5.154;2022-09-09T03:18:59;10.13;;;4.47;;
67442;SDS011;54311;51.726;5.154;2022-09-09T03:21:24;5.50;;;4.18;;
67442;SDS011;54311;51.726;5.154;2022-09-09T03:23:49;7.00;;;4.18;;
67442;SDS011;54311;51.726;5.154;2022-09-09T03:26:14;7.87;;;4.00;;
67442;SDS011;54311;51.726;5.154;2022-09-09T03:28:40;7.63;;;4.27;;
67442;SDS011;54311;51.726;5.154;2022-09-09T03:31:05;4.70;;;3.95;;
67442;SDS011;54311;51.726;5.154;2022-09-09T03:33:31;10.43;;;4.93;;
67442;SDS011;54311;51.726;5.154;2022-09-09T03:35:56;6.35;;;3.90;;
67442;SDS011;54311;51.726;5.154;2022-09-09T03:38:25;5.40;;;4.32;;
67442;SDS011;54311;51.726;5.154;2022-09-09T03:40:53;6.43;;;4.32;;
67442;SDS011;54311;51.726;5.154;2022-09-09T03:43:22;6.10;;;4.70;;
67442;SDS011;54311;51.726;5.154;2022-09-09T03:45:48;6.85;;;4.63;;
67442;SDS011;54311;51.726;5.154;2022-09-09T03:48:14;5.68;;;4.28;;
67442;SDS011;54311;51.726;5.154;2022-09-09T03:50:43;6.15;;;3.80;;
67442;SDS011;54311;51.726;5.154;2022-09-09T03:53:09;4.40;;;4.00;;
67442;SDS011;54311;51.726;5.154;2022-09-09T03:55:34;4.73;;;4.30;;
67442;SDS011;54311;51.726;5.154;2022-09-09T03:57:59;5.53;;;4.00;;
67442;SDS011;54311;51.726;5.154;2022-09-09T04:00:25;9.82;;;3.92;;
67442;SDS011;54311;51.726;5.154;2022-09-09T04:02:51;6.85;;;4.32;;
67442;SDS011;54311;51.726;5.154;2022-09-09T04:05:19;9.00;;;3.85;;
67442;SDS011;54311;51.726;5.154;2022-09-09T04:07:44;8.50;;;4.45;;
67442;SDS011;54311;51.726;5.154;2022-09-09T04:10:09;4.13;;;3.72;;
67442;SDS011;54311;51.726;5.154;2022-09-09T04:12:35;4.88;;;4.22;;
67442;SDS011;54311;51.726;5.154;2022-09-09T04:15:00;5.82;;;3.85;;
67442;SDS011;54311;51.726;5.154;2022-09-09T04:17:27;6.88;;;4.78;;
67442;SDS011;54311;51.726;5.154;2022-09-09T04:19:52;5.00;;;3.83;;
67442;SDS011;54311;51.726;5.154;2022-09-09T04:22:17;4.20;;;3.90;;
67442;SDS011;54311;51.726;5.154;2022-09-09T04:24:42;4.97;;;3.97;;
67442;SDS011;54311;51.726;5.154;2022-09-09T04:27:07;5.10;;;3.73;;
67442;SDS011;54311;51.726;5.154;2022-09-09T04:29:33;8.40;;;4.50;;
67442;SDS011;54311;51.726;5.154;2022-09-09T04:31:58;6.00;;;3.92;;
67442;SDS011;54311;51.726;5.154;2022-09-09T04:34:23;7.30;;;4.70;;
67442;SDS011;54311;51.726;5.154;2022-09-09T04:36:50;7.43;;;4.20;;
67442;SDS011;54311;51.726;5.154;2022-09-09T04:39:16;9.77;;;4.25;;
67442;SDS011;54311;51.726;5.154;2022-09-09T04:41:41;6.57;;;4.40;;
67442;SDS011;54311;51.726;5.154;2022-09-09T04:44:07;11.07;;;4.40;;
67442;SDS011;54311;51.726;5.154;2022-09-09T04:46:32;10.00;;;4.87;;
67442;SDS011;54311;51.726;5.154;2022-09-09T04:48:59;7.25;;;5.00;;
67442;SDS011;54311;51.726;5.154;2022-09-09T04:51:24;7.60;;;4.13;;
67442;SDS011;54311;51.726;5.154;2022-09-09T04:53:49;7.38;;;4.45;;
67442;SDS011;54311;51.726;5.154;2022-09-09T04:56:16;6.65;;;4.47;;
67442;SDS011;54311;51.726;5.154;2022-09-09T04:58:42;10.63;;;4.85;;
67442;SDS011;54311;51.726;5.154;2022-09-09T05:01:12;16.55;;;4.55;;
67442;SDS011;54311;51.726;5.154;2022-09-09T05:03:37;10.73;;;4.88;;
67442;SDS011;54311;51.726;5.154;2022-09-09T05:06:09;13.65;;;4.30;;
67442;SDS011;54311;51.726;5.154;2022-09-09T05:08:36;7.60;;;4.60;;
67442;SDS011;54311;51.726;5.154;2022-09-09T05:11:01;5.78;;;4.30;;
67442;SDS011;54311;51.726;5.154;2022-09-09T05:13:27;13.52;;;4.82;;
67442;SDS011;54311;51.726;5.154;2022-09-09T05:15:53;7.25;;;4.47;;
67442;SDS011;54311;51.726;5.154;2022-09-09T05:18:18;8.52;;;4.13;;
67442;SDS011;54311;51.726;5.154;2022-09-09T05:20:43;8.70;;;4.83;;
67442;SDS011;54311;51.726;5.154;2022-09-09T05:23:08;10.27;;;4.70;;
67442;SDS011;54311;51.726;5.154;2022-09-09T05:25:36;13.63;;;4.65;;
67442;SDS011;54311;51.726;5.154;2022-09-09T05:28:01;11.02;;;4.65;;
67442;SDS011;54311;51.726;5.154;2022-09-09T05:30:26;9.23;;;4.97;;
67442;SDS011;54311;51.726;5.154;2022-09-09T05:32:51;7.73;;;4.83;;
67442;SDS011;54311;51.726;5.154;2022-09-09T05:35:17;9.82;;;5.03;;
67442;SDS011;54311;51.726;5.154;2022-09-09T05:37:44;8.40;;;4.78;;
67442;SDS011;54311;51.726;5.154;2022-09-09T05:40:10;9.05;;;4.93;;
67442;SDS011;54311;51.726;5.154;2022-09-09T05:42:36;9.32;;;5.32;;
67442;SDS011;54311;51.726;5.154;2022-09-09T05:45:01;10.87;;;5.10;;
67442;SDS011;54311;51.726;5.154;2022-09-09T05:47:26;10.83;;;4.87;;
67442;SDS011;54311;51.726;5.154;2022-09-09T05:49:52;10.07;;;5.38;;
67442;SDS011;54311;51.726;5.154;2022-09-09T05:52:17;10.73;;;5.07;;
67442;SDS011;54311;51.726;5.154;2022-09-09T05:54:43;16.63;;;5.23;;
67442;SDS011;54311;51.726;5.154;2022-09-09T05:57:08;8.20;;;4.75;;
67442;SDS011;54311;51.726;5.154;2022-09-09T05:59:34;10.98;;;5.22;;
67442;SDS011;54311;51.726;5.154;2022-09-09T06:01:59;10.83;;;5.60;;
67442;SDS011;54311;51.726;5.154;2022-09-09T06:04:24;9.87;;;5.37;;
67442;SDS011;54311;51.726;5.154;2022-09-09T06:06:49;8.65;;;4.95;;
67442;SDS011;54311;51.726;5.154;2022-09-09T06:09:15;7.53;;;5.03;;
67442;SDS011;54311;51.726;5.154;2022-09-09T06:11:40;9.40;;;5.00;;
67442;SDS011;54311;51.726;5.154;2022-09-09T06:14:05;12.73;;;5.32;;
67442;SDS011;54311;51.726;5.154;2022-09-09T06:16:31;15.38;;;5.20;;
67442;SDS011;54311;51.726;5.154;2022-09-09T06:18:59;8.13;;;5.80;;
67442;SDS011;54311;51.726;5.154;2022-09-09T06:21:32;7.88;;;4.88;;
67442;SDS011;54311;51.726;5.154;2022-09-09T06:23:58;9.77;;;5.50;;
67442;SDS011;54311;51.726;5.154;2022-09-09T06:26:27;11.15;;;4.82;;
67442;SDS011;54311;51.726;5.154;2022-09-09T06:28:54;10.45;;;4.95;;
67442;SDS011;54311;51.726;5.154;2022-09-09T06:31:23;9.73;;;4.90;;
67442;SDS011;54311;51.726;5.154;2022-09-09T06:33:49;8.60;;;5.22;;
67442;SDS011;54311;51.726;5.154;2022-09-09T06:36:22;9.18;;;4.63;;
67442;SDS011;54311;51.726;5.154;2022-09-09T06:38:48;14.27;;;5.50;;
67442;SDS011;54311;51.726;5.154;2022-09-09T06:41:14;14.57;;;5.60;;
67442;SDS011;54311;51.726;5.154;2022-09-09T06:43:39;14.57;;;4.97;;
67442;SDS011;54311;51.726;5.154;2022-09-09T06:48:30;12.85;;;4.93;;
67442;SDS011;54311;51.726;5.154;2022-09-09T06:53:33;8.07;;;5.03;;
67442;SDS011;54311;51.726;5.154;2022-09-09T06:56:00;13.95;;;5.43;;
67442;SDS011;54311;51.726;5.154;2022-09-09T06:58:26;12.30;;;5.10;;
67442;SDS011;54311;51.726;5.154;2022-09-09T07:00:51;16.00;;;5.43;;
67442;SDS011;54311;51.726;5.154;2022-09-09T07:03:16;17.67;;;5.20;;
67442;SDS011;54311;51.726;5.154;2022-09-09T07:05:42;9.27;;;4.82;;
67442;SDS011;54311;51.726;5.154;2022-09-09T07:08:08;10.18;;;5.22;;
67442;SDS011;54311;51.726;5.154;2022-09-09T07:10:35;11.35;;;5.25;;
67442;SDS011;54311;51.726;5.154;2022-09-09T07:13:00;19.47;;;5.10;;
67442;SDS011;54311;51.726;5.154;2022-09-09T07:15:27;12.48;;;4.95;;
67442;SDS011;54311;51.726;5.154;2022-09-09T07:17:52;10.30;;;4.50;;
67442;SDS011;54311;51.726;5.154;2022-09-09T07:20:18;11.15;;;4.47;;
67442;SDS011;54311;51.726;5.154;2022-09-09T07:22:43;9.17;;;4.57;;
67442;SDS011;54311;51.726;5.154;2022-09-09T07:25:08;20.93;;;4.93;;
67442;SDS011;54311;51.726;5.154;2022-09-09T07:27:33;16.13;;;4.88;;
67442;SDS011;54311;51.726;5.154;2022-09-09T07:29:58;10.23;;;4.53;;
67442;SDS011;54311;51.726;5.154;2022-09-09T07:32:24;13.77;;;4.57;;
67442;SDS011;54311;51.726;5.154;2022-09-09T07:34:50;13.15;;;4.90;;
67442;SDS011;54311;51.726;5.154;2022-09-09T07:37:15;13.73;;;5.40;;
67442;SDS011;54311;51.726;5.154;2022-09-09T07:39:41;11.37;;;5.07;;
67442;SDS011;54311;51.726;5.154;2022-09-09T07:42:06;10.40;;;4.28;;
67442;SDS011;54311;51.726;5.154;2022-09-09T07:44:31;12.90;;;4.18;;
67442;SDS011;54311;51.726;5.154;2022-09-09T07:47:00;10.43;;;4.05;;
67442;SDS011;54311;51.726;5.154;2022-09-09T07:49:25;13.75;;;4.60;;
67442;SDS011;54311;51.726;5.154;2022-09-09T07:51:50;11.90;;;4.70;;
67442;SDS011;54311;51.726;5.154;2022-09-09T07:54:16;13.80;;;4.40;;
67442;SDS011;54311;51.726;5.154;2022-09-09T07:56:44;14.70;;;4.20;;
67442;SDS011;54311;51.726;5.154;2022-09-09T07:59:10;10.03;;;4.20;;
67442;SDS011;54311;51.726;5.154;2022-09-09T08:01:36;8.82;;;4.28;;
67442;SDS011;54311;51.726;5.154;2022-09-09T08:04:05;14.05;;;4.28;;
67442;SDS011;54311;51.726;5.154;2022-09-09T08:06:31;10.02;;;4.32;;
67442;SDS011;54311;51.726;5.154;2022-09-09T08:08:58;11.27;;;3.90;;
67442;SDS011;54311;51.726;5.154;2022-09-09T08:11:24;12.98;;;4.38;;
67442;SDS011;54311;51.726;5.154;2022-09-09T08:13:50;11.27;;;3.72;;
67442;SDS011;54311;51.726;5.154;2022-09-09T08:16:20;14.63;;;4.38;;
67442;SDS011;54311;51.726;5.154;2022-09-09T08:18:48;8.18;;;3.60;;
67442;SDS011;54311;51.726;5.154;2022-09-09T08:21:18;8.75;;;3.63;;
67442;SDS011;54311;51.726;5.154;2022-09-09T08:23:45;13.70;;;3.97;;
67442;SDS011;54311;51.726;5.154;2022-09-09T08:26:17;9.63;;;4.35;;
67442;SDS011;54311;51.726;5.154;2022-09-09T08:28:46;13.52;;;3.65;;
67442;SDS011;54311;51.726;5.154;2022-09-09T08:33:36;12.73;;;3.50;;
67442;SDS011;54311;51.726;5.154;2022-09-09T08:36:03;10.85;;;3.75;;
67442;SDS011;54311;51.726;5.154;2022-09-09T08:38:29;13.68;;;4.15;;
67442;SDS011;54311;51.726;5.154;2022-09-09T08:40:54;11.93;;;3.97;;
67442;SDS011;54311;51.726;5.154;2022-09-09T08:43:25;9.02;;;3.50;;
67442;SDS011;54311;51.726;5.154;2022-09-09T08:45:57;14.07;;;4.07;;
67442;SDS011;54311;51.726;5.154;2022-09-09T08:48:36;12.55;;;4.55;;
67442;SDS011;54311;51.726;5.154;2022-09-09T08:51:06;17.38;;;4.25;;
67442;SDS011;54311;51.726;5.154;2022-09-09T08:53:43;18.85;;;3.58;;
67442;SDS011;54311;51.726;5.154;2022-09-09T08:56:11;8.27;;;3.10;;
67442;SDS011;54311;51.726;5.154;2022-09-09T08:58:56;7.65;;;3.65;;
67442;SDS011;54311;51.726;5.154;2022-09-09T09:01:44;8.70;;;3.72;;
67442;SDS011;54311;51.726;5.154;2022-09-09T09:04:26;13.00;;;4.07;;
67442;SDS011;54311;51.726;5.154;2022-09-09T09:06:57;13.70;;;3.80;;
67442;SDS011;54311;51.726;5.154;2022-09-09T09:11:57;9.70;;;3.60;;
67442;SDS011;54311;51.726;5.154;2022-09-09T09:14:28;12.60;;;3.88;;
67442;SDS011;54311;51.726;5.154;2022-09-09T09:16:57;13.35;;;4.20;;
67442;SDS011;54311;51.726;5.154;2022-09-09T09:19:23;14.50;;;4.22;;
67442;SDS011;54311;51.726;5.154;2022-09-09T09:21:53;12.50;;;3.53;;
67442;SDS011;54311;51.726;5.154;2022-09-09T09:24:20;11.52;;;3.90;;
67442;SDS011;54311;51.726;5.154;2022-09-09T09:26:45;12.27;;;4.45;;
67442;SDS011;54311;51.726;5.154;2022-09-09T09:29:12;12.77;;;3.90;;
67442;SDS011;54311;51.726;5.154;2022-09-09T09:31:38;7.45;;;3.45;;
67442;SDS011;54311;51.726;5.154;2022-09-09T09:34:03;10.27;;;4.13;;
67442;SDS011;54311;51.726;5.154;2022-09-09T09:36:39;11.85;;;3.70;;
67442;SDS011;54311;51.726;5.154;2022-09-09T09:39:05;10.55;;;3.65;;
67442;SDS011;54311;51.726;5.154;2022-09-09T09:41:31;8.20;;;3.20;;
67442;SDS011;54311;51.726;5.154;2022-09-09T09:43:57;17.50;;;3.72;;
67442;SDS011;54311;51.726;5.154;2022-09-09T09:46:23;10.70;;;3.38;;
67442;SDS011;54311;51.726;5.154;2022-09-09T09:48:59;13.18;;;4.07;;
67442;SDS011;54311;51.726;5.154;2022-09-09T09:51:25;9.63;;;3.10;;
67442;SDS011;54311;51.726;5.154;2022-09-09T09:53:51;6.60;;;3.65;;
67442;SDS011;54311;51.726;5.154;2022-09-09T09:56:25;14.85;;;3.67;;
67442;SDS011;54311;51.726;5.154;2022-09-09T09:58:51;9.15;;;3.03;;
67442;SDS011;54311;51.726;5.154;2022-09-09T10:01:23;13.18;;;4.07;;
67442;SDS011;54311;51.726;5.154;2022-09-09T10:04:00;9.45;;;4.43;;
67442;SDS011;54311;51.726;5.154;2022-09-09T10:06:34;9.68;;;4.18;;
67442;SDS011;54311;51.726;5.154;2022-09-09T10:09:00;10.38;;;3.85;;
67442;SDS011;54311;51.726;5.154;2022-09-09T10:22:35;10.27;;;4.38;;
67442;SDS011;54311;51.726;5.154;2022-09-09T10:25:05;12.10;;;4.47;;
67442;SDS011;54311;51.726;5.154;2022-09-09T10:33:10;10.15;;;4.10;;
67442;SDS011;54311;51.726;5.154;2022-09-09T10:40:46;10.27;;;3.55;;
67442;SDS011;54311;51.726;5.154;2022-09-09T10:46:08;14.45;;;4.07;;
67442;SDS011;54311;51.726;5.154;2022-09-09T10:56:13;11.97;;;4.03;;
67442;SDS011;54311;51.726;5.154;2022-09-09T10:58:42;6.82;;;3.60;;
67442;SDS011;54311;51.726;5.154;2022-09-09T11:01:19;9.10;;;4.13;;
67442;SDS011;54311;51.726;5.154;2022-09-09T11:03:47;14.18;;;4.35;;
67442;SDS011;54311;51.726;5.154;2022-09-09T11:06:16;9.13;;;4.18;;
67442;SDS011;54311;51.726;5.154;2022-09-09T11:08:42;9.68;;;3.85;;
67442;SDS011;54311;51.726;5.154;2022-09-09T11:11:12;8.47;;;3.90;;
67442;SDS011;54311;51.726;5.154;2022-09-09T11:16:19;10.85;;;3.42;;
67442;SDS011;54311;51.726;5.154;2022-09-09T11:18:46;8.85;;;4.22;;
67442;SDS011;54311;51.726;5.154;2022-09-09T11:21:34;11.02;;;4.30;;
67442;SDS011;54311;51.726;5.154;2022-09-09T11:24:10;8.23;;;4.15;;
67442;SDS011;54311;51.726;5.154;2022-09-09T11:26:38;8.95;;;3.78;;
67442;SDS011;54311;51.726;5.154;2022-09-09T11:41:55;7.25;;;4.28;;
67442;SDS011;54311;51.726;5.154;2022-09-09T11:44:30;6.88;;;3.85;;
67442;SDS011;54311;51.726;5.154;2022-09-09T11:46:55;8.52;;;4.30;;
67442;SDS011;54311;51.726;5.154;2022-09-09T11:49:28;8.40;;;4.23;;
67442;SDS011;54311;51.726;5.154;2022-09-09T11:51:53;7.50;;;4.47;;
67442;SDS011;54311;51.726;5.154;2022-09-09T11:54:32;7.43;;;4.68;;
67442;SDS011;54311;51.726;5.154;2022-09-09T11:57:00;8.52;;;4.18;;
67442;SDS011;54311;51.726;5.154;2022-09-09T11:59:27;8.20;;;4.75;;
67442;SDS011;54311;51.726;5.154;2022-09-09T12:01:57;10.82;;;4.20;;
67442;SDS011;54311;51.726;5.154;2022-09-09T12:04:28;8.88;;;4.15;;
67442;SDS011;54311;51.726;5.154;2022-09-09T12:07:02;10.13;;;4.60;;
67442;SDS011;54311;51.726;5.154;2022-09-09T12:09:29;7.35;;;3.90;;
67442;SDS011;54311;51.726;5.154;2022-09-09T12:14:38;10.90;;;5.13;;
67442;SDS011;54311;51.726;5.154;2022-09-09T12:19:41;7.38;;;3.40;;
67442;SDS011;54311;51.726;5.154;2022-09-09T12:24:50;7.25;;;3.63;;
67442;SDS011;54311;51.726;5.154;2022-09-09T12:27:20;8.45;;;4.03;;
67442;SDS011;54311;51.726;5.154;2022-09-09T12:30:02;11.98;;;3.83;;
67442;SDS011;54311;51.726;5.154;2022-09-09T12:32:28;5.80;;;3.53;;
67442;SDS011;54311;51.726;5.154;2022-09-09T12:34:55;4.68;;;3.65;;
67442;SDS011;54311;51.726;5.154;2022-09-09T12:40:00;7.20;;;3.33;;
67442;SDS011;54311;51.726;5.154;2022-09-09T12:42:27;8.85;;;3.88;;
67442;SDS011;54311;51.726;5.154;2022-09-09T12:44:54;10.98;;;3.55;;
67442;SDS011;54311;51.726;5.154;2022-09-09T12:47:20;10.25;;;3.58;;
67442;SDS011;54311;51.726;5.154;2022-09-09T12:49:46;8.23;;;3.30;;
67442;SDS011;54311;51.726;5.154;2022-09-09T12:52:17;12.00;;;3.13;;
67442;SDS011;54311;51.726;5.154;2022-09-09T12:54:44;9.30;;;3.70;;
67442;SDS011;54311;51.726;5.154;2022-09-09T12:57:13;6.68;;;3.75;;
67442;SDS011;54311;51.726;5.154;2022-09-09T12:59:40;7.28;;;4.05;;
67442;SDS011;54311;51.726;5.154;2022-09-09T13:02:11;9.70;;;3.90;;
67442;SDS011;54311;51.726;5.154;2022-09-09T13:04:41;8.93;;;4.10;;
67442;SDS011;54311;51.726;5.154;2022-09-09T13:07:07;5.83;;;3.27;;
67442;SDS011;54311;51.726;5.154;2022-09-09T13:09:34;10.05;;;4.07;;
67442;SDS011;54311;51.726;5.154;2022-09-09T13:11:59;7.10;;;3.30;;
67442;SDS011;54311;51.726;5.154;2022-09-09T13:14:28;5.93;;;3.90;;
67442;SDS011;54311;51.726;5.154;2022-09-09T13:16:57;12.52;;;4.20;;
67442;SDS011;54311;51.726;5.154;2022-09-09T13:19:23;9.23;;;4.28;;
67442;SDS011;54311;51.726;5.154;2022-09-09T13:21:52;7.40;;;3.50;;
67442;SDS011;54311;51.726;5.154;2022-09-09T13:27:00;3.78;;;3.40;;
67442;SDS011;54311;51.726;5.154;2022-09-09T13:29:29;7.63;;;3.60;;
67442;SDS011;54311;51.726;5.154;2022-09-09T13:32:03;5.50;;;3.50;;
67442;SDS011;54311;51.726;5.154;2022-09-09T13:34:31;6.13;;;3.20;;
67442;SDS011;54311;51.726;5.154;2022-09-09T13:36:58;8.63;;;3.90;;
67442;SDS011;54311;51.726;5.154;2022-09-09T13:39:24;10.20;;;3.53;;
67442;SDS011;54311;51.726;5.154;2022-09-09T13:41:49;7.63;;;3.17;;
67442;SDS011;54311;51.726;5.154;2022-09-09T13:44:17;6.70;;;3.20;;
67442;SDS011;54311;51.726;5.154;2022-09-09T13:46:44;5.18;;;3.40;;
67442;SDS011;54311;51.726;5.154;2022-09-09T13:51:36;11.40;;;3.13;;
67442;SDS011;54311;51.726;5.154;2022-09-09T13:54:02;5.15;;;2.97;;
67442;SDS011;54311;51.726;5.154;2022-09-09T13:56:27;5.05;;;2.60;;
67442;SDS011;54311;51.726;5.154;2022-09-09T13:58:53;8.13;;;2.97;;
67442;SDS011;54311;51.726;5.154;2022-09-09T14:01:18;8.97;;;3.13;;
67442;SDS011;54311;51.726;5.154;2022-09-09T14:03:43;4.23;;;2.63;;
67442;SDS011;54311;51.726;5.154;2022-09-09T14:06:09;7.13;;;2.97;;
67442;SDS011;54311;51.726;5.154;2022-09-09T14:08:34;8.68;;;2.92;;
67442;SDS011;54311;51.726;5.154;2022-09-09T14:11:02;4.38;;;2.70;;
67442;SDS011;54311;51.726;5.154;2022-09-09T14:13:27;7.38;;;2.60;;
67442;SDS011;54311;51.726;5.154;2022-09-09T14:15:53;8.67;;;2.63;;
67442;SDS011;54311;51.726;5.154;2022-09-09T14:18:18;6.55;;;2.80;;
67442;SDS011;54311;51.726;5.154;2022-09-09T14:20:44;5.80;;;2.47;;
67442;SDS011;54311;51.726;5.154;2022-09-09T14:23:10;2.70;;;2.50;;
67442;SDS011;54311;51.726;5.154;2022-09-09T14:25:35;3.80;;;2.78;;
67442;SDS011;54311;51.726;5.154;2022-09-09T14:28:00;5.20;;;2.95;;
67442;SDS011;54311;51.726;5.154;2022-09-09T14:30:26;4.25;;;2.97;;
67442;SDS011;54311;51.726;5.154;2022-09-09T14:32:52;6.17;;;3.10;;
67442;SDS011;54311;51.726;5.154;2022-09-09T14:35:17;3.83;;;2.90;;
67442;SDS011;54311;51.726;5.154;2022-09-09T14:37:43;3.30;;;3.00;;
67442;SDS011;54311;51.726;5.154;2022-09-09T14:40:09;5.20;;;2.90;;
67442;SDS011;54311;51.726;5.154;2022-09-09T14:42:36;3.22;;;2.30;;
67442;SDS011;54311;51.726;5.154;2022-09-09T14:45:01;2.10;;;1.90;;
67442;SDS011;54311;51.726;5.154;2022-09-09T14:47:26;2.00;;;1.70;;
67442;SDS011;54311;51.726;5.154;2022-09-09T14:49:51;4.68;;;1.98;;
67442;SDS011;54311;51.726;5.154;2022-09-09T14:52:17;2.10;;;1.65;;
67442;SDS011;54311;51.726;5.154;2022-09-09T14:54:42;3.20;;;2.00;;
67442;SDS011;54311;51.726;5.154;2022-09-09T14:57:07;1.83;;;1.73;;
67442;SDS011;54311;51.726;5.154;2022-09-09T14:59:32;3.23;;;2.20;;
67442;SDS011;54311;51.726;5.154;2022-09-09T15:01:59;8.40;;;2.75;;
67442;SDS011;54311;51.726;5.154;2022-09-09T15:04:28;4.50;;;2.70;;
67442;SDS011;54311;51.726;5.154;2022-09-09T15:06:54;3.20;;;2.17;;
67442;SDS011;54311;51.726;5.154;2022-09-09T15:09:19;4.03;;;1.97;;
67442;SDS011;54311;51.726;5.154;2022-09-09T15:11:44;6.20;;;2.30;;
67442;SDS011;54311;51.726;5.154;2022-09-09T15:14:10;5.30;;;2.08;;
67442;SDS011;54311;51.726;5.154;2022-09-09T15:16:37;5.68;;;2.53;;
67442;SDS011;54311;51.726;5.154;2022-09-09T15:19:03;2.40;;;2.20;;
67442;SDS011;54311;51.726;5.154;2022-09-09T15:21:29;2.90;;;2.42;;
67442;SDS011;54311;51.726;5.154;2022-09-09T15:23:55;4.32;;;2.75;;
67442;SDS011;54311;51.726;5.154;2022-09-09T15:26:20;5.40;;;2.67;;
67442;SDS011;54311;51.726;5.154;2022-09-09T15:28:46;8.57;;;2.75;;
67442;SDS011;54311;51.726;5.154;2022-09-09T15:31:16;4.13;;;2.60;;
67442;SDS011;54311;51.726;5.154;2022-09-09T15:33:47;3.00;;;2.67;;
67442;SDS011;54311;51.726;5.154;2022-09-09T15:36:20;3.53;;;2.42;;
67442;SDS011;54311;51.726;5.154;2022-09-09T15:38:46;4.72;;;2.72;;
67442;SDS011;54311;51.726;5.154;2022-09-09T15:41:11;4.60;;;2.53;;
67442;SDS011;54311;51.726;5.154;2022-09-09T15:43:37;5.88;;;2.92;;
67442;SDS011;54311;51.726;5.154;2022-09-09T15:48:43;2.92;;;2.53;;
67442;SDS011;54311;51.726;5.154;2022-09-09T15:51:09;6.05;;;2.63;;
67442;SDS011;54311;51.726;5.154;2022-09-09T15:53:34;3.95;;;2.60;;
67442;SDS011;54311;51.726;5.154;2022-09-09T15:55:59;2.30;;;2.20;;
67442;SDS011;54311;51.726;5.154;2022-09-09T15:58:25;4.97;;;2.10;;
67442;SDS011;54311;51.726;5.154;2022-09-09T16:00:50;6.30;;;2.27;;
67442;SDS011;54311;51.726;5.154;2022-09-09T16:03:16;4.40;;;2.78;;
67442;SDS011;54311;51.726;5.154;2022-09-09T16:05:41;6.45;;;2.70;;
67442;SDS011;54311;51.726;5.154;2022-09-09T16:08:06;3.23;;;2.60;;
67442;SDS011;54311;51.726;5.154;2022-09-09T16:10:31;2.40;;;2.17;;
67442;SDS011;54311;51.726;5.154;2022-09-09T16:12:57;2.37;;;1.73;;
67442;SDS011;54311;51.726;5.154;2022-09-09T16:15:22;3.30;;;2.17;;
67442;SDS011;54311;51.726;5.154;2022-09-09T16:17:48;2.47;;;2.28;;
67442;SDS011;54311;51.726;5.154;2022-09-09T16:20:13;3.75;;;1.90;;
67442;SDS011;54311;51.726;5.154;2022-09-09T16:22:39;7.38;;;1.92;;
67442;SDS011;54311;51.726;5.154;2022-09-09T16:25:05;4.60;;;2.00;;
67442;SDS011;54311;51.726;5.154;2022-09-09T16:27:30;2.35;;;1.77;;
67442;SDS011;54311;51.726;5.154;2022-09-09T16:29:55;4.05;;;2.78;;
67442;SDS011;54311;51.726;5.154;2022-09-09T16:32:21;2.53;;;2.10;;
67442;SDS011;54311;51.726;5.154;2022-09-09T16:34:47;5.90;;;2.88;;
67442;SDS011;54311;51.726;5.154;2022-09-09T16:37:12;6.38;;;2.55;;
67442;SDS011;54311;51.726;5.154;2022-09-09T16:39:37;6.83;;;2.23;;
67442;SDS011;54311;51.726;5.154;2022-09-09T16:42:02;2.43;;;2.23;;
67442;SDS011;54311;51.726;5.154;2022-09-09T16:44:29;2.30;;;2.10;;